sensor_id;sensor_type;location;lat;lon;timestamp;temperature;humidity
19344;DHT22;9808;52.402;16.678;2022-09-14T00:01:21;14.60;99.90
19344;DHT22;9808;52.402;16.678;2022-09-14T00:03:53;14.60;99.90
19344;DHT22;9808;52.402;16.678;2022-09-14T00:06:21;14.60;99.90
19344;DHT22;9808;52.402;16.678;2022-09-14T00:08:54;14.50;99.90
19344;DHT22;9808;52.402;16.678;2022-09-14T00:11:23;14.50;99.90
19344;DHT22;9808;52.402;16.678;2022-09-14T00:13:51;14.50;99.90
19344;DHT22;9808;52.402;16.678;2022-09-14T00:16:38;14.50;99.90
19344;DHT22;9808;52.402;16.678;2022-09-14T00:19:18;14.50;99.90
19344;DHT22;9808;52.402;16.678;2022-09-14T00:21:52;15.00;99.90
19344;DHT22;9808;52.402;16.678;2022-09-14T00:24:20;14.40;99.90
19344;DHT22;9808;52.402;16.678;2022-09-14T00:26:47;14.50;99.90
19344;DHT22;9808;52.402;16.678;2022-09-14T00:29:14;14.40;99.90
19344;DHT22;9808;52.402;16.678;2022-09-14T00:31:41;14.40;99.90
19344;DHT22;9808;52.402;16.678;2022-09-14T00:34:11;14.40;99.90
19344;DHT22;9808;52.402;16.678;2022-09-14T00:36:41;14.40;99.90
19344;DHT22;9808;52.402;16.678;2022-09-14T00:39:09;14.40;99.90
19344;DHT22;9808;52.402;16.678;2022-09-14T00:41:39;14.30;99.90
19344;DHT22;9808;52.402;16.678;2022-09-14T00:46:43;14.30;99.90
19344;DHT22;9808;52.402;16.678;2022-09-14T00:49:15;14.30;99.90
19344;DHT22;9808;52.402;16.678;2022-09-14T00:51:57;14.10;99.90
19344;DHT22;9808;52.402;16.678;2022-09-14T00:54:26;14.30;99.90
19344;DHT22;9808;52.402;16.678;2022-09-14T00:56:53;14.30;99.90
19344;DHT22;9808;52.402;16.678;2022-09-14T00:59:24;14.50;99.90
19344;DHT22;9808;52.402;16.678;2022-09-14T01:01:53;14.40;99.90
19344;DHT22;9808;52.402;16.678;2022-09-14T01:04:20;14.70;99.90
19344;DHT22;9808;52.402;16.678;2022-09-14T01:15:21;14.20;99.90
19344;DHT22;9808;52.402;16.678;2022-09-14T01:18:17;14.90;99.90
19344;DHT22;9808;52.402;16.678;2022-09-14T01:20:57;14.20;99.90
19344;DHT22;9808;52.402;16.678;2022-09-14T01:29:07;14.10;99.90
19344;DHT22;9808;52.402;16.678;2022-09-14T01:31:49;14.10;99.90
19344;DHT22;9808;52.402;16.678;2022-09-14T01:34:31;14.10;99.90
19344;DHT22;9808;52.402;16.678;2022-09-14T01:37:04;15.30;99.90
19344;DHT22;9808;52.402;16.678;2022-09-14T01:39:42;14.10;99.90
19344;DHT22;9808;52.402;16.678;2022-09-14T01:42:11;14.10;99.90
19344;DHT22;9808;52.402;16.678;2022-09-14T01:44:42;14.10;99.90
19344;DHT22;9808;52.402;16.678;2022-09-14T01:47:47;14.30;99.90
19344;DHT22;9808;52.402;16.678;2022-09-14T01:50:21;14.10;99.90
19344;DHT22;9808;52.402;16.678;2022-09-14T01:52:58;14.70;99.90
19344;DHT22;9808;52.402;16.678;2022-09-14T01:55:29;14.50;99.90
19344;DHT22;9808;52.402;16.678;2022-09-14T01:58:04;14.20;99.90
19344;DHT22;9808;52.402;16.678;2022-09-14T02:00:32;13.80;99.90
19344;DHT22;9808;52.402;16.678;2022-09-14T02:03:08;14.50;99.90
19344;DHT22;9808;52.402;16.678;2022-09-14T02:05:42;13.90;99.90
19344;DHT22;9808;52.402;16.678;2022-09-14T02:08:10;13.80;99.90
19344;DHT22;9808;52.402;16.678;2022-09-14T02:10:37;13.80;99.90
19344;DHT22;9808;52.402;16.678;2022-09-14T02:13:04;13.80;99.90
19344;DHT22;9808;52.402;16.678;2022-09-14T02:15:34;13.80;99.90
19344;DHT22;9808;52.402;16.678;2022-09-14T02:18:02;13.80;99.90
19344;DHT22;9808;52.402;16.678;2022-09-14T02:20:51;13.70;99.90
19344;DHT22;9808;52.402;16.678;2022-09-14T02:23:19;13.70;99.90
19344;DHT22;9808;52.402;16.678;2022-09-14T02:25:46;14.60;99.90
19344;DHT22;9808;52.402;16.678;2022-09-14T02:28:13;13.70;99.90
19344;DHT22;9808;52.402;16.678;2022-09-14T02:37:05;13.60;99.90
19344;DHT22;9808;52.402;16.678;2022-09-14T02:39:44;13.60;99.90
19344;DHT22;9808;52.402;16.678;2022-09-14T02:48:02;13.90;99.90
19344;DHT22;9808;52.402;16.678;2022-09-14T02:50:49;13.60;99.90
19344;DHT22;9808;52.402;16.678;2022-09-14T02:53:28;13.50;99.90
19344;DHT22;9808;52.402;16.678;2022-09-14T02:56:00;13.50;99.90
19344;DHT22;9808;52.402;16.678;2022-09-14T02:58:36;13.50;99.90
19344;DHT22;9808;52.402;16.678;2022-09-14T03:01:05;14.10;99.90
19344;DHT22;9808;52.402;16.678;2022-09-14T03:03:32;13.50;99.90
19344;DHT22;9808;52.402;16.678;2022-09-14T03:06:01;13.50;99.90
19344;DHT22;9808;52.402;16.678;2022-09-14T03:08:28;13.40;99.90
19344;DHT22;9808;52.402;16.678;2022-09-14T03:10:55;13.40;99.90
19344;DHT22;9808;52.402;16.678;2022-09-14T03:13:22;14.00;99.90
19344;DHT22;9808;52.402;16.678;2022-09-14T03:15:49;13.30;99.90
19344;DHT22;9808;52.402;16.678;2022-09-14T03:18:16;13.40;99.90
19344;DHT22;9808;52.402;16.678;2022-09-14T03:20:43;13.30;99.90
19344;DHT22;9808;52.402;16.678;2022-09-14T03:23:11;13.70;99.90
19344;DHT22;9808;52.402;16.678;2022-09-14T03:25:42;13.20;99.90
19344;DHT22;9808;52.402;16.678;2022-09-14T03:28:11;13.20;99.90
19344;DHT22;9808;52.402;16.678;2022-09-14T03:30:38;14.00;99.90
19344;DHT22;9808;52.402;16.678;2022-09-14T03:33:04;13.40;99.90
19344;DHT22;9808;52.402;16.678;2022-09-14T03:35:31;13.10;99.90
19344;DHT22;9808;52.402;16.678;2022-09-14T03:37:58;13.10;99.90
19344;DHT22;9808;52.402;16.678;2022-09-14T03:40:26;13.10;99.90
19344;DHT22;9808;52.402;16.678;2022-09-14T03:42:53;13.10;99.90
19344;DHT22;9808;52.402;16.678;2022-09-14T03:45:21;13.70;99.90
19344;DHT22;9808;52.402;16.678;2022-09-14T03:47:48;13.10;99.90
19344;DHT22;9808;52.402;16.678;2022-09-14T03:50:17;13.00;99.90
19344;DHT22;9808;52.402;16.678;2022-09-14T03:52:44;13.50;99.90
19344;DHT22;9808;52.402;16.678;2022-09-14T03:55:11;13.00;99.90
19344;DHT22;9808;52.402;16.678;2022-09-14T03:57:38;12.90;99.90
19344;DHT22;9808;52.402;16.678;2022-09-14T04:00:06;12.90;99.90
19344;DHT22;9808;52.402;16.678;2022-09-14T04:02:34;12.90;99.90
19344;DHT22;9808;52.402;16.678;2022-09-14T04:05:00;14.10;99.90
19344;DHT22;9808;52.402;16.678;2022-09-14T04:07:27;12.90;99.90
19344;DHT22;9808;52.402;16.678;2022-09-14T04:09:54;12.80;99.90
19344;DHT22;9808;52.402;16.678;2022-09-14T04:12:21;12.80;99.90
19344;DHT22;9808;52.402;16.678;2022-09-14T04:14:48;12.80;99.90
19344;DHT22;9808;52.402;16.678;2022-09-14T04:17:15;12.90;99.90
19344;DHT22;9808;52.402;16.678;2022-09-14T04:19:43;13.40;99.90
19344;DHT22;9808;52.402;16.678;2022-09-14T04:22:10;12.80;99.90
19344;DHT22;9808;52.402;16.678;2022-09-14T04:24:36;12.80;99.90
19344;DHT22;9808;52.402;16.678;2022-09-14T04:27:03;12.70;99.90
19344;DHT22;9808;52.402;16.678;2022-09-14T04:29:30;12.70;99.90
19344;DHT22;9808;52.402;16.678;2022-09-14T04:31:57;12.70;99.90
19344;DHT22;9808;52.402;16.678;2022-09-14T04:34:24;12.70;99.90
19344;DHT22;9808;52.402;16.678;2022-09-14T04:36:51;12.70;99.90
19344;DHT22;9808;52.402;16.678;2022-09-14T04:39:17;12.70;99.90
19344;DHT22;9808;52.402;16.678;2022-09-14T04:41:44;13.60;99.90
19344;DHT22;9808;52.402;16.678;2022-09-14T04:44:11;12.60;99.90
19344;DHT22;9808;52.402;16.678;2022-09-14T04:46:38;13.40;99.90
19344;DHT22;9808;52.402;16.678;2022-09-14T04:49:13;12.70;99.90
19344;DHT22;9808;52.402;16.678;2022-09-14T04:51:40;12.60;99.90
19344;DHT22;9808;52.402;16.678;2022-09-14T04:54:08;12.60;99.90
19344;DHT22;9808;52.402;16.678;2022-09-14T04:56:35;12.60;99.90
19344;DHT22;9808;52.402;16.678;2022-09-14T04:59:03;13.30;99.90
19344;DHT22;9808;52.402;16.678;2022-09-14T05:01:39;12.70;99.90
19344;DHT22;9808;52.402;16.678;2022-09-14T05:04:07;12.70;99.90
19344;DHT22;9808;52.402;16.678;2022-09-14T05:06:37;12.70;99.90
19344;DHT22;9808;52.402;16.678;2022-09-14T05:09:10;13.80;99.90
19344;DHT22;9808;52.402;16.678;2022-09-14T05:11:39;12.70;99.90
19344;DHT22;9808;52.402;16.678;2022-09-14T05:14:06;12.70;99.90
19344;DHT22;9808;52.402;16.678;2022-09-14T05:16:35;12.70;99.90
19344;DHT22;9808;52.402;16.678;2022-09-14T05:19:07;13.40;99.90
19344;DHT22;9808;52.402;16.678;2022-09-14T05:21:36;12.90;99.90
19344;DHT22;9808;52.402;16.678;2022-09-14T05:24:12;12.70;99.90
19344;DHT22;9808;52.402;16.678;2022-09-14T05:26:41;12.80;99.90
19344;DHT22;9808;52.402;16.678;2022-09-14T05:29:14;12.80;99.90
19344;DHT22;9808;52.402;16.678;2022-09-14T05:31:41;12.80;99.90
19344;DHT22;9808;52.402;16.678;2022-09-14T05:34:09;12.80;99.90
19344;DHT22;9808;52.402;16.678;2022-09-14T05:36:37;12.80;99.90
19344;DHT22;9808;52.402;16.678;2022-09-14T05:39:05;12.80;99.90
19344;DHT22;9808;52.402;16.678;2022-09-14T05:41:32;12.80;99.90
19344;DHT22;9808;52.402;16.678;2022-09-14T05:43:59;13.60;99.90
19344;DHT22;9808;52.402;16.678;2022-09-14T05:46:26;13.80;99.90
19344;DHT22;9808;52.402;16.678;2022-09-14T05:48:53;14.20;99.90
19344;DHT22;9808;52.402;16.678;2022-09-14T05:51:21;13.50;99.90
19344;DHT22;9808;52.402;16.678;2022-09-14T05:53:56;12.90;99.90
19344;DHT22;9808;52.402;16.678;2022-09-14T05:56:25;13.00;99.90
19344;DHT22;9808;52.402;16.678;2022-09-14T05:58:53;13.30;99.90
19344;DHT22;9808;52.402;16.678;2022-09-14T06:01:21;14.30;99.90
19344;DHT22;9808;52.402;16.678;2022-09-14T06:03:49;13.20;99.90
19344;DHT22;9808;52.402;16.678;2022-09-14T06:06:17;13.20;99.90
19344;DHT22;9808;52.402;16.678;2022-09-14T06:08:45;13.20;99.90
19344;DHT22;9808;52.402;16.678;2022-09-14T06:11:16;13.30;99.90
19344;DHT22;9808;52.402;16.678;2022-09-14T06:13:43;13.60;99.90
19344;DHT22;9808;52.402;16.678;2022-09-14T06:16:13;13.30;99.90
19344;DHT22;9808;52.402;16.678;2022-09-14T06:18:41;13.40;99.90
19344;DHT22;9808;52.402;16.678;2022-09-14T06:21:14;14.10;99.90
19344;DHT22;9808;52.402;16.678;2022-09-14T06:23:43;14.10;99.90
19344;DHT22;9808;52.402;16.678;2022-09-14T06:26:10;13.50;99.90
19344;DHT22;9808;52.402;16.678;2022-09-14T06:28:37;14.60;99.90
19344;DHT22;9808;52.402;16.678;2022-09-14T06:31:05;14.00;99.90
19344;DHT22;9808;52.402;16.678;2022-09-14T06:33:33;13.80;99.90
19344;DHT22;9808;52.402;16.678;2022-09-14T06:36:03;14.70;99.90
19344;DHT22;9808;52.402;16.678;2022-09-14T06:38:30;14.80;99.90
19344;DHT22;9808;52.402;16.678;2022-09-14T06:40:58;13.90;99.90
19344;DHT22;9808;52.402;16.678;2022-09-14T06:43:27;13.90;99.90
19344;DHT22;9808;52.402;16.678;2022-09-14T06:46:00;14.00;99.90
19344;DHT22;9808;52.402;16.678;2022-09-14T06:48:28;14.00;99.90
19344;DHT22;9808;52.402;16.678;2022-09-14T06:50:55;14.90;99.90
19344;DHT22;9808;52.402;16.678;2022-09-14T06:53:23;14.10;99.90
19344;DHT22;9808;52.402;16.678;2022-09-14T06:55:50;15.10;99.90
19344;DHT22;9808;52.402;16.678;2022-09-14T06:58:18;14.20;99.90
19344;DHT22;9808;52.402;16.678;2022-09-14T07:00:45;15.00;99.90
19344;DHT22;9808;52.402;16.678;2022-09-14T07:03:12;14.30;99.90
19344;DHT22;9808;52.402;16.678;2022-09-14T07:05:39;14.30;99.90
19344;DHT22;9808;52.402;16.678;2022-09-14T07:08:05;14.40;99.90
19344;DHT22;9808;52.402;16.678;2022-09-14T07:10:37;14.40;99.90
19344;DHT22;9808;52.402;16.678;2022-09-14T07:13:04;14.90;99.90
19344;DHT22;9808;52.402;16.678;2022-09-14T07:15:31;14.50;99.90
19344;DHT22;9808;52.402;16.678;2022-09-14T07:17:58;14.50;99.90
19344;DHT22;9808;52.402;16.678;2022-09-14T07:20:25;14.50;99.90
19344;DHT22;9808;52.402;16.678;2022-09-14T07:22:52;14.60;99.90
19344;DHT22;9808;52.402;16.678;2022-09-14T07:25:18;14.70;99.90
19344;DHT22;9808;52.402;16.678;2022-09-14T07:27:45;14.60;99.90
19344;DHT22;9808;52.402;16.678;2022-09-14T07:30:12;14.60;99.90
19344;DHT22;9808;52.402;16.678;2022-09-14T07:32:39;14.60;99.90
19344;DHT22;9808;52.402;16.678;2022-09-14T07:35:06;14.70;99.90
19344;DHT22;9808;52.402;16.678;2022-09-14T07:37:33;14.70;99.90
19344;DHT22;9808;52.402;16.678;2022-09-14T07:40:00;14.80;99.90
19344;DHT22;9808;52.402;16.678;2022-09-14T07:42:27;14.80;99.90
19344;DHT22;9808;52.402;16.678;2022-09-14T07:44:54;14.80;99.90
19344;DHT22;9808;52.402;16.678;2022-09-14T07:47:20;14.90;99.90
19344;DHT22;9808;52.402;16.678;2022-09-14T07:49:47;15.00;99.90
19344;DHT22;9808;52.402;16.678;2022-09-14T07:52:14;15.40;99.90
19344;DHT22;9808;52.402;16.678;2022-09-14T07:54:40;15.00;99.90
19344;DHT22;9808;52.402;16.678;2022-09-14T07:57:07;15.10;99.90
19344;DHT22;9808;52.402;16.678;2022-09-14T07:59:34;15.20;99.90
19344;DHT22;9808;52.402;16.678;2022-09-14T08:02:07;15.20;99.90
19344;DHT22;9808;52.402;16.678;2022-09-14T08:04:34;15.20;99.90
19344;DHT22;9808;52.402;16.678;2022-09-14T08:07:02;15.20;99.40
19344;DHT22;9808;52.402;16.678;2022-09-14T08:09:28;15.30;99.30
19344;DHT22;9808;52.402;16.678;2022-09-14T08:11:55;15.30;99.80
19344;DHT22;9808;52.402;16.678;2022-09-14T08:14:22;15.30;99.90
19344;DHT22;9808;52.402;16.678;2022-09-14T08:16:49;15.30;99.90
19344;DHT22;9808;52.402;16.678;2022-09-14T08:19:17;15.50;97.00
19344;DHT22;9808;52.402;16.678;2022-09-14T08:21:46;15.40;95.90
19344;DHT22;9808;52.402;16.678;2022-09-14T08:24:16;15.40;94.20
19344;DHT22;9808;52.402;16.678;2022-09-14T08:26:43;15.50;97.60
19344;DHT22;9808;52.402;16.678;2022-09-14T08:29:12;15.50;99.90
19344;DHT22;9808;52.402;16.678;2022-09-14T08:31:39;15.50;99.90
19344;DHT22;9808;52.402;16.678;2022-09-14T08:34:06;15.60;99.90
19344;DHT22;9808;52.402;16.678;2022-09-14T08:36:38;15.70;94.40
19344;DHT22;9808;52.402;16.678;2022-09-14T08:39:07;15.60;94.40
19344;DHT22;9808;52.402;16.678;2022-09-14T08:44:29;15.70;97.20
19344;DHT22;9808;52.402;16.678;2022-09-14T08:47:03;15.80;90.60
19344;DHT22;9808;52.402;16.678;2022-09-14T08:50:00;15.80;91.40
19344;DHT22;9808;52.402;16.678;2022-09-14T08:52:40;15.90;86.90
19344;DHT22;9808;52.402;16.678;2022-09-14T08:55:47;15.90;90.00
19344;DHT22;9808;52.402;16.678;2022-09-14T08:58:25;16.00;87.10
19344;DHT22;9808;52.402;16.678;2022-09-14T09:03:54;16.10;77.50
19344;DHT22;9808;52.402;16.678;2022-09-14T09:06:41;16.10;91.40
19344;DHT22;9808;52.402;16.678;2022-09-14T09:09:44;16.20;82.50
19344;DHT22;9808;52.402;16.678;2022-09-14T09:12:22;16.30;76.30
19344;DHT22;9808;52.402;16.678;2022-09-14T09:14:53;16.40;62.20
19344;DHT22;9808;52.402;16.678;2022-09-14T09:17:28;16.40;55.70
19344;DHT22;9808;52.402;16.678;2022-09-14T09:22:30;16.50;26.60
19344;DHT22;9808;52.402;16.678;2022-09-14T09:24:59;17.00;22.30
19344;DHT22;9808;52.402;16.678;2022-09-14T09:27:29;16.70;35.20
19344;DHT22;9808;52.402;16.678;2022-09-14T09:29:55;16.70;40.30
19344;DHT22;9808;52.402;16.678;2022-09-14T09:32:23;16.80;29.60
19344;DHT22;9808;52.402;16.678;2022-09-14T09:34:51;16.90;23.60
19344;DHT22;9808;52.402;16.678;2022-09-14T09:37:21;16.90;35.30
19344;DHT22;9808;52.402;16.678;2022-09-14T09:39:49;17.00;26.70
19344;DHT22;9808;52.402;16.678;2022-09-14T09:42:20;17.10;35.00
19344;DHT22;9808;52.402;16.678;2022-09-14T09:44:53;17.10;33.20
19344;DHT22;9808;52.402;16.678;2022-09-14T09:47:38;17.30;1.00
19344;DHT22;9808;52.402;16.678;2022-09-14T09:52:49;17.50;1.00
19344;DHT22;9808;52.402;16.678;2022-09-14T09:55:19;17.50;5.20
19344;DHT22;9808;52.402;16.678;2022-09-14T09:57:47;17.60;1.00
19344;DHT22;9808;52.402;16.678;2022-09-14T10:02:48;17.80;1.00
19344;DHT22;9808;52.402;16.678;2022-09-14T10:05:27;17.90;1.00
19344;DHT22;9808;52.402;16.678;2022-09-14T10:07:57;18.00;1.00
19344;DHT22;9808;52.402;16.678;2022-09-14T10:10:45;18.10;1.00
19344;DHT22;9808;52.402;16.678;2022-09-14T10:13:34;18.20;1.00
19344;DHT22;9808;52.402;16.678;2022-09-14T10:16:15;18.40;1.00
19344;DHT22;9808;52.402;16.678;2022-09-14T10:18:47;18.50;1.00
19344;DHT22;9808;52.402;16.678;2022-09-14T10:21:20;18.50;1.00
19344;DHT22;9808;52.402;16.678;2022-09-14T10:26:40;18.70;1.00
19344;DHT22;9808;52.402;16.678;2022-09-14T10:29:27;18.90;1.00
19344;DHT22;9808;52.402;16.678;2022-09-14T10:32:17;19.10;1.00
19344;DHT22;9808;52.402;16.678;2022-09-14T10:34:44;19.20;1.00
19344;DHT22;9808;52.402;16.678;2022-09-14T10:37:29;19.20;1.00
19344;DHT22;9808;52.402;16.678;2022-09-14T10:43:06;19.20;1.00
19344;DHT22;9808;52.402;16.678;2022-09-14T10:45:34;19.20;1.00
19344;DHT22;9808;52.402;16.678;2022-09-14T10:51:17;19.20;1.00
19344;DHT22;9808;52.402;16.678;2022-09-14T10:59:35;19.30;1.00
19344;DHT22;9808;52.402;16.678;2022-09-14T11:05:07;19.20;1.00
19344;DHT22;9808;52.402;16.678;2022-09-14T11:07:51;19.20;1.00
19344;DHT22;9808;52.402;16.678;2022-09-14T11:18:53;19.20;1.00
19344;DHT22;9808;52.402;16.678;2022-09-14T11:21:32;19.20;1.00
19344;DHT22;9808;52.402;16.678;2022-09-14T11:24:20;19.30;1.00
19344;DHT22;9808;52.402;16.678;2022-09-14T11:27:09;19.30;1.00
19344;DHT22;9808;52.402;16.678;2022-09-14T11:29:51;20.90;1.00
19344;DHT22;9808;52.402;16.678;2022-09-14T11:32:46;19.50;1.00
19344;DHT22;9808;52.402;16.678;2022-09-14T11:35:24;19.50;1.00
19344;DHT22;9808;52.402;16.678;2022-09-14T11:37:55;19.60;1.00
19344;DHT22;9808;52.402;16.678;2022-09-14T11:40:40;19.70;1.00
19344;DHT22;9808;52.402;16.678;2022-09-14T11:43:20;19.70;1.00
19344;DHT22;9808;52.402;16.678;2022-09-14T11:45:56;19.70;1.00
19344;DHT22;9808;52.402;16.678;2022-09-14T11:49:04;19.70;1.00
19344;DHT22;9808;52.402;16.678;2022-09-14T11:51:40;19.70;1.00
19344;DHT22;9808;52.402;16.678;2022-09-14T11:54:26;19.70;1.00
19344;DHT22;9808;52.402;16.678;2022-09-14T11:57:00;19.50;1.00
19344;DHT22;9808;52.402;16.678;2022-09-14T12:10:16;19.50;1.00
19344;DHT22;9808;52.402;16.678;2022-09-14T12:15:36;19.40;1.00
19344;DHT22;9808;52.402;16.678;2022-09-14T12:20:38;19.40;1.00
19344;DHT22;9808;52.402;16.678;2022-09-14T12:23:20;19.50;1.00
19344;DHT22;9808;52.402;16.678;2022-09-14T12:59:51;19.80;1.00
19344;DHT22;9808;52.402;16.678;2022-09-14T13:04:54;19.60;1.00
19344;DHT22;9808;52.402;16.678;2022-09-14T13:07:27;19.60;1.00
19344;DHT22;9808;52.402;16.678;2022-09-14T13:09:56;19.60;1.00
19344;DHT22;9808;52.402;16.678;2022-09-14T13:15:05;19.50;1.00
19344;DHT22;9808;52.402;16.678;2022-09-14T13:17:33;19.50;1.00
19344;DHT22;9808;52.402;16.678;2022-09-14T13:20:02;19.40;1.00
19344;DHT22;9808;52.402;16.678;2022-09-14T13:22:32;19.40;1.00
19344;DHT22;9808;52.402;16.678;2022-09-14T13:24:59;19.40;1.00
19344;DHT22;9808;52.402;16.678;2022-09-14T13:27:32;19.30;1.00
19344;DHT22;9808;52.402;16.678;2022-09-14T13:30:00;19.40;1.00
19344;DHT22;9808;52.402;16.678;2022-09-14T13:32:27;19.30;1.00
19344;DHT22;9808;52.402;16.678;2022-09-14T13:34:54;19.20;1.00
19344;DHT22;9808;52.402;16.678;2022-09-14T13:37:22;19.20;1.00
19344;DHT22;9808;52.402;16.678;2022-09-14T13:39:52;19.20;1.00
19344;DHT22;9808;52.402;16.678;2022-09-14T13:42:20;19.20;1.00
19344;DHT22;9808;52.402;16.678;2022-09-14T13:44:48;19.10;1.00
19344;DHT22;9808;52.402;16.678;2022-09-14T13:47:18;19.10;1.00
19344;DHT22;9808;52.402;16.678;2022-09-14T13:49:47;19.10;1.00
19344;DHT22;9808;52.402;16.678;2022-09-14T14:03:27;19.00;1.00
19344;DHT22;9808;52.402;16.678;2022-09-14T14:05:54;19.00;1.00
19344;DHT22;9808;52.402;16.678;2022-09-14T14:11:00;19.00;1.00
19344;DHT22;9808;52.402;16.678;2022-09-14T14:13:29;19.00;1.00
19344;DHT22;9808;52.402;16.678;2022-09-14T14:16:13;19.00;1.00
19344;DHT22;9808;52.402;16.678;2022-09-14T14:18:47;18.90;1.00
19344;DHT22;9808;52.402;16.678;2022-09-14T14:23:51;18.90;1.00
19344;DHT22;9808;52.402;16.678;2022-09-14T14:26:38;18.90;1.00
19344;DHT22;9808;52.402;16.678;2022-09-14T14:29:08;18.90;1.00
19344;DHT22;9808;52.402;16.678;2022-09-14T14:31:35;18.90;1.00
19344;DHT22;9808;52.402;16.678;2022-09-14T14:34:15;18.80;1.00
19344;DHT22;9808;52.402;16.678;2022-09-14T14:36:44;18.90;1.00
19344;DHT22;9808;52.402;16.678;2022-09-14T14:39:12;18.90;1.00
19344;DHT22;9808;52.402;16.678;2022-09-14T14:41:40;19.20;1.00
19344;DHT22;9808;52.402;16.678;2022-09-14T14:44:11;18.80;1.00
19344;DHT22;9808;52.402;16.678;2022-09-14T14:46:40;18.80;1.00
19344;DHT22;9808;52.402;16.678;2022-09-14T14:49:12;18.80;1.00
19344;DHT22;9808;52.402;16.678;2022-09-14T14:51:39;18.80;1.00
19344;DHT22;9808;52.402;16.678;2022-09-14T14:54:08;18.70;1.00
19344;DHT22;9808;52.402;16.678;2022-09-14T14:56:37;18.90;1.00
19344;DHT22;9808;52.402;16.678;2022-09-14T15:01:48;18.70;1.00
19344;DHT22;9808;52.402;16.678;2022-09-14T15:04:15;18.60;1.00
19344;DHT22;9808;52.402;16.678;2022-09-14T15:06:42;18.60;1.00
19344;DHT22;9808;52.402;16.678;2022-09-14T15:09:16;18.50;1.00
19344;DHT22;9808;52.402;16.678;2022-09-14T15:11:43;18.50;1.00
19344;DHT22;9808;52.402;16.678;2022-09-14T15:14:13;18.50;1.00
19344;DHT22;9808;52.402;16.678;2022-09-14T15:16:41;18.50;1.00
19344;DHT22;9808;52.402;16.678;2022-09-14T15:19:08;18.50;1.00
19344;DHT22;9808;52.402;16.678;2022-09-14T15:21:37;18.50;1.00
19344;DHT22;9808;52.402;16.678;2022-09-14T15:24:04;18.50;1.00
19344;DHT22;9808;52.402;16.678;2022-09-14T15:26:32;18.50;1.00
19344;DHT22;9808;52.402;16.678;2022-09-14T15:28:59;18.40;1.00
19344;DHT22;9808;52.402;16.678;2022-09-14T15:31:26;18.50;1.00
19344;DHT22;9808;52.402;16.678;2022-09-14T15:33:53;18.40;1.00
19344;DHT22;9808;52.402;16.678;2022-09-14T15:39:09;18.40;1.00
19344;DHT22;9808;52.402;16.678;2022-09-14T15:41:37;18.40;1.00
19344;DHT22;9808;52.402;16.678;2022-09-14T15:44:04;18.30;1.00
19344;DHT22;9808;52.402;16.678;2022-09-14T15:46:30;18.40;1.00
19344;DHT22;9808;52.402;16.678;2022-09-14T15:48:57;18.30;1.00
19344;DHT22;9808;52.402;16.678;2022-09-14T15:51:24;18.30;1.00
19344;DHT22;9808;52.402;16.678;2022-09-14T15:53:51;18.20;1.00
19344;DHT22;9808;52.402;16.678;2022-09-14T15:56:18;18.20;1.00
19344;DHT22;9808;52.402;16.678;2022-09-14T15:58:45;18.20;1.00
19344;DHT22;9808;52.402;16.678;2022-09-14T16:01:16;18.10;1.00
19344;DHT22;9808;52.402;16.678;2022-09-14T16:03:43;18.10;1.00
19344;DHT22;9808;52.402;16.678;2022-09-14T16:06:12;18.10;1.00
19344;DHT22;9808;52.402;16.678;2022-09-14T16:08:40;18.10;1.00
19344;DHT22;9808;52.402;16.678;2022-09-14T16:11:10;18.00;1.00
19344;DHT22;9808;52.402;16.678;2022-09-14T16:13:37;18.00;1.00
19344;DHT22;9808;52.402;16.678;2022-09-14T16:16:16;18.00;1.00
19344;DHT22;9808;52.402;16.678;2022-09-14T16:18:44;17.90;1.00
19344;DHT22;9808;52.402;16.678;2022-09-14T16:21:23;17.90;1.00
19344;DHT22;9808;52.402;16.678;2022-09-14T16:23:59;17.90;1.00
19344;DHT22;9808;52.402;16.678;2022-09-14T16:26:30;17.80;1.00
19344;DHT22;9808;52.402;16.678;2022-09-14T16:28:58;17.80;1.00
19344;DHT22;9808;52.402;16.678;2022-09-14T16:31:31;17.70;1.00
19344;DHT22;9808;52.402;16.678;2022-09-14T16:34:02;17.70;1.00
19344;DHT22;9808;52.402;16.678;2022-09-14T16:36:36;17.60;1.00
19344;DHT22;9808;52.402;16.678;2022-09-14T16:39:05;17.60;1.00
19344;DHT22;9808;52.402;16.678;2022-09-14T16:41:35;17.60;1.00
19344;DHT22;9808;52.402;16.678;2022-09-14T16:44:04;17.50;1.00
19344;DHT22;9808;52.402;16.678;2022-09-14T16:46:33;17.50;1.00
19344;DHT22;9808;52.402;16.678;2022-09-14T16:49:00;17.40;1.00
19344;DHT22;9808;52.402;16.678;2022-09-14T16:51:29;17.40;1.00
19344;DHT22;9808;52.402;16.678;2022-09-14T16:53:57;17.30;1.00
19344;DHT22;9808;52.402;16.678;2022-09-14T16:56:30;17.30;1.00
19344;DHT22;9808;52.402;16.678;2022-09-14T16:58:59;17.20;1.00
19344;DHT22;9808;52.402;16.678;2022-09-14T17:01:35;17.10;1.00
19344;DHT22;9808;52.402;16.678;2022-09-14T17:04:13;17.10;1.00
19344;DHT22;9808;52.402;16.678;2022-09-14T17:06:43;17.10;1.00
19344;DHT22;9808;52.402;16.678;2022-09-14T17:09:15;17.10;1.00
19344;DHT22;9808;52.402;16.678;2022-09-14T17:11:43;17.00;1.10
19344;DHT22;9808;52.402;16.678;2022-09-14T17:14:16;16.90;2.00
19344;DHT22;9808;52.402;16.678;2022-09-14T17:16:44;16.90;3.90
19344;DHT22;9808;52.402;16.678;2022-09-14T17:19:12;16.90;5.20
19344;DHT22;9808;52.402;16.678;2022-09-14T17:21:41;16.80;6.90
19344;DHT22;9808;52.402;16.678;2022-09-14T17:24:09;16.80;9.20
19344;DHT22;9808;52.402;16.678;2022-09-14T17:26:36;16.80;13.10
19344;DHT22;9808;52.402;16.678;2022-09-14T17:29:04;16.70;16.00
19344;DHT22;9808;52.402;16.678;2022-09-14T17:31:34;16.30;17.00
19344;DHT22;9808;52.402;16.678;2022-09-14T17:34:03;16.60;17.30
19344;DHT22;9808;52.402;16.678;2022-09-14T17:36:31;16.60;16.70
19344;DHT22;9808;52.402;16.678;2022-09-14T17:38:59;16.60;17.90
19344;DHT22;9808;52.402;16.678;2022-09-14T17:41:29;16.50;19.40
19344;DHT22;9808;52.402;16.678;2022-09-14T17:44:01;16.60;20.40
19344;DHT22;9808;52.402;16.678;2022-09-14T17:46:29;16.50;22.80
19344;DHT22;9808;52.402;16.678;2022-09-14T17:48:58;16.40;23.10
19344;DHT22;9808;52.402;16.678;2022-09-14T17:51:26;16.40;25.30
19344;DHT22;9808;52.402;16.678;2022-09-14T17:53:55;16.40;27.20
19344;DHT22;9808;52.402;16.678;2022-09-14T17:56:24;16.40;27.90
19344;DHT22;9808;52.402;16.678;2022-09-14T17:59:03;16.30;31.00
19344;DHT22;9808;52.402;16.678;2022-09-14T18:01:31;16.30;35.30
19344;DHT22;9808;52.402;16.678;2022-09-14T18:04:02;16.30;38.50
19344;DHT22;9808;52.402;16.678;2022-09-14T18:06:39;16.20;42.20
19344;DHT22;9808;52.402;16.678;2022-09-14T18:09:11;16.70;44.80
19344;DHT22;9808;52.402;16.678;2022-09-14T18:11:39;16.20;45.90
19344;DHT22;9808;52.402;16.678;2022-09-14T18:14:07;16.10;47.60
19344;DHT22;9808;52.402;16.678;2022-09-14T18:16:39;16.10;51.00
19344;DHT22;9808;52.402;16.678;2022-09-14T18:19:06;16.10;54.50
19344;DHT22;9808;52.402;16.678;2022-09-14T18:21:34;16.00;53.50
19344;DHT22;9808;52.402;16.678;2022-09-14T18:24:02;16.00;54.60
19344;DHT22;9808;52.402;16.678;2022-09-14T18:26:29;16.00;54.80